createdAt,value
2022-10-11T00:00:44.211Z,86.17
2022-10-11T00:03:31.592Z,86.49
2022-10-11T00:05:59.703Z,86.60
2022-10-11T00:08:27.880Z,86.72
2022-10-11T00:10:57.233Z,86.46
2022-10-11T00:13:25.667Z,86.51
2022-10-11T00:15:54.106Z,86.72
2022-10-11T00:18:22.362Z,87.11
2022-10-11T00:20:50.506Z,87.17
2022-10-11T00:23:18.669Z,86.79
2022-10-11T00:25:56.072Z,87.70
2022-10-11T00:28:24.341Z,88.03
2022-10-11T00:30:52.485Z,88.35
2022-10-11T00:33:20.732Z,88.49
2022-10-11T00:35:49.061Z,88.60
2022-10-11T00:38:17.757Z,89.49
2022-10-11T00:40:46.153Z,89.65
2022-10-11T00:43:18.718Z,89.83
2022-10-11T00:45:56.055Z,89.36
2022-10-11T00:48:33.126Z,88.62
2022-10-11T00:51:03.221Z,88.86
2022-10-11T00:53:32.966Z,89.01
2022-10-11T00:56:09.791Z,89.45
2022-10-11T00:58:38.786Z,89.28
2022-10-11T01:01:07.527Z,88.91
2022-10-11T01:03:36.515Z,87.85
2022-10-11T01:06:05.200Z,87.17
2022-10-11T01:08:34.162Z,86.52
2022-10-11T01:11:02.575Z,86.37
2022-10-11T01:13:33.884Z,87.29
2022-10-11T01:16:14.923Z,87.75
2022-10-11T01:18:42.997Z,87.58
2022-10-11T01:21:11.091Z,87.48
2022-10-11T01:24:25.786Z,87.78
2022-10-11T01:26:59.797Z,87.21
2022-10-11T01:29:49.240Z,87.63
2022-10-11T01:32:19.608Z,87.44
2022-10-11T01:34:56.106Z,87.16
2022-10-11T01:37:36.456Z,87.51
2022-10-11T01:40:10.809Z,87.40
2022-10-11T01:42:40.127Z,87.18
2022-10-11T01:45:09.863Z,86.98
2022-10-11T01:47:39.298Z,86.68
2022-10-11T01:50:27.572Z,86.67
2022-10-11T01:52:57.504Z,86.44
2022-10-11T01:55:36.433Z,86.77
2022-10-11T01:58:22.588Z,86.92
2022-10-11T02:00:55.630Z,86.30
2022-10-11T02:03:26.815Z,86.90
2022-10-11T02:06:03.087Z,86.58
2022-10-11T02:08:39.104Z,86.22
2022-10-11T02:11:12.963Z,85.63
2022-10-11T02:13:50.382Z,86.40
2022-10-11T02:16:21.769Z,86.38
2022-10-11T02:18:51.862Z,86.48
2022-10-11T02:21:22.898Z,87.01
2022-10-11T02:23:56.468Z,87.25
2022-10-11T02:26:25.194Z,87.51
2022-10-11T02:28:55.611Z,87.37
2022-10-11T02:31:24.612Z,86.90
2022-10-11T02:33:55.999Z,85.81
2022-10-11T02:36:33.825Z,85.77
2022-10-11T02:39:06.824Z,87.34
2022-10-11T02:41:38.784Z,87.32
2022-10-11T02:44:09.614Z,87.46
2022-10-11T02:46:38.640Z,87.28
2022-10-11T02:49:07.870Z,87.51
2022-10-11T02:51:36.354Z,86.83
2022-10-11T02:54:04.534Z,85.99
2022-10-11T02:56:32.603Z,86.13
2022-10-11T02:59:00.751Z,87.02
2022-10-11T03:01:28.949Z,86.58
2022-10-11T03:03:57.167Z,87.36
2022-10-11T03:06:25.403Z,87.01
2022-10-11T03:08:53.521Z,87.65
2022-10-11T03:11:21.630Z,87.49
2022-10-11T03:13:49.720Z,87.20
2022-10-11T03:16:17.852Z,87.29
2022-10-11T03:18:45.997Z,87.02
2022-10-11T03:21:14.144Z,87.51
2022-10-11T03:23:42.873Z,86.60
2022-10-11T03:26:10.993Z,86.09
2022-10-11T03:28:39.229Z,85.86
2022-10-11T03:31:07.485Z,85.92
2022-10-11T03:33:35.619Z,87.04
2022-10-11T03:36:04.153Z,87.57
2022-10-11T03:38:32.571Z,86.96
2022-10-11T03:41:00.774Z,87.75
2022-10-11T03:43:28.937Z,88.20
2022-10-11T03:45:57.083Z,88.04
2022-10-11T03:48:25.495Z,88.18
2022-10-11T03:50:53.622Z,88.20
2022-10-11T03:53:21.750Z,88.92
2022-10-11T03:55:52.488Z,89.29
2022-10-11T03:58:21.128Z,89.08
2022-10-11T04:00:49.651Z,88.40
2022-10-11T04:03:17.763Z,88.60
2022-10-11T04:05:45.916Z,88.25
2022-10-11T04:08:14.073Z,88.73
2022-10-11T04:10:42.291Z,89.11
2022-10-11T04:13:11.474Z,88.92
2022-10-11T04:15:39.700Z,88.63
2022-10-11T04:18:08.289Z,88.79
2022-10-11T04:20:36.910Z,89.30
2022-10-11T04:23:05.050Z,88.96
2022-10-11T04:25:33.184Z,89.28
2022-10-11T04:28:01.322Z,89.47
2022-10-11T04:30:29.581Z,88.91
2022-10-11T04:32:57.823Z,88.40
2022-10-11T04:35:25.996Z,87.75
2022-10-11T04:37:54.162Z,87.47
2022-10-11T04:40:22.469Z,87.66
2022-10-11T04:42:52.091Z,88.05
2022-10-11T04:45:20.959Z,88.48
2022-10-11T04:47:49.104Z,88.61
2022-10-11T04:50:17.284Z,88.16
2022-10-11T04:52:45.435Z,87.73
2022-10-11T04:55:14.418Z,88.40
2022-10-11T04:57:42.923Z,88.54
2022-10-11T05:00:11.502Z,88.36
2022-10-11T05:02:39.657Z,86.99
2022-10-11T05:05:08.056Z,86.77
2022-10-11T05:07:36.233Z,87.07
2022-10-11T05:10:04.504Z,87.05
2022-10-11T05:12:32.629Z,86.61
2022-10-11T05:15:00.869Z,86.85
2022-10-11T05:17:29.265Z,87.50
2022-10-11T05:19:57.436Z,87.46
2022-10-11T05:22:25.573Z,87.51
2022-10-11T05:24:53.715Z,87.47
2022-10-11T05:27:21.843Z,87.51
2022-10-11T05:29:50.047Z,87.11
2022-10-11T05:32:18.264Z,86.64
2022-10-11T05:34:46.437Z,86.54
2022-10-11T05:37:14.599Z,87.32
2022-10-11T05:39:42.755Z,87.61
2022-10-11T05:42:10.941Z,87.40
2022-10-11T05:44:39.293Z,87.33
2022-10-11T05:47:07.530Z,89.13
2022-10-11T05:49:35.752Z,89.36
2022-10-11T05:52:03.983Z,88.77
2022-10-11T05:54:32.632Z,88.65
2022-10-11T05:57:00.824Z,88.35
2022-10-11T05:59:29.011Z,88.04
2022-10-11T06:01:57.173Z,87.83
2022-10-11T06:04:25.379Z,88.38
2022-10-11T06:06:53.661Z,87.68
2022-10-11T06:09:21.801Z,87.41
2022-10-11T06:11:50.057Z,87.33
2022-10-11T06:14:18.617Z,87.70
2022-10-11T06:16:46.755Z,87.78
2022-10-11T06:19:14.965Z,87.58
2022-10-11T06:21:43.294Z,87.57
2022-10-11T06:24:12.563Z,87.34
2022-10-11T06:26:40.728Z,86.63
2022-10-11T06:29:08.908Z,86.72
2022-10-11T06:31:37.092Z,86.14
2022-10-11T06:34:05.197Z,85.76
2022-10-11T06:36:33.338Z,85.81
2022-10-11T06:39:01.767Z,86.50
2022-10-11T06:41:30.583Z,86.21
2022-10-11T06:43:59.148Z,86.55
2022-10-11T06:46:27.959Z,85.66
2022-10-11T06:48:56.775Z,86.06
2022-10-11T06:51:25.028Z,86.02
2022-10-11T06:53:55.663Z,85.96
2022-10-11T06:56:24.177Z,86.04
2022-10-11T06:58:53.420Z,85.79
2022-10-11T07:01:23.965Z,85.34
2022-10-11T07:03:53.283Z,84.93
2022-10-11T07:06:22.634Z,84.51
2022-10-11T07:08:50.800Z,84.42
2022-10-11T07:11:20.326Z,84.60
2022-10-11T07:13:52.526Z,85.09
2022-10-11T07:16:21.487Z,84.84
2022-10-11T07:18:57.212Z,84.65
2022-10-11T07:21:28.732Z,83.99
2022-10-11T07:23:57.095Z,83.73
2022-10-11T07:26:25.380Z,83.59
2022-10-11T07:28:53.733Z,83.32
2022-10-11T07:31:23.111Z,82.63
2022-10-11T07:33:51.663Z,82.64
2022-10-11T07:36:19.847Z,82.20
2022-10-11T07:38:48.499Z,82.08
2022-10-11T07:41:16.876Z,81.53
2022-10-11T07:43:47.168Z,80.28
2022-10-11T07:46:16.676Z,80.33
2022-10-11T07:48:44.912Z,80.18
2022-10-11T07:51:18.203Z,80.27
2022-10-11T07:53:56.610Z,79.07
2022-10-11T07:56:26.580Z,79.18
2022-10-11T07:58:56.031Z,77.90
2022-10-11T08:01:24.753Z,77.10
2022-10-11T08:03:54.168Z,73.86
2022-10-11T08:06:23.515Z,72.20
2022-10-11T08:08:51.719Z,72.68
2022-10-11T08:11:30.503Z,72.76
2022-10-11T08:13:59.330Z,70.59
2022-10-11T08:16:27.830Z,67.97
2022-10-11T08:18:57.342Z,67.53
2022-10-11T08:21:27.059Z,67.25
2022-10-11T08:23:55.302Z,65.12
2022-10-11T08:26:23.773Z,65.66
2022-10-11T08:28:51.961Z,64.38
2022-10-11T08:31:20.213Z,64.47
2022-10-11T08:33:48.410Z,63.95
2022-10-11T08:36:16.565Z,64.10
2022-10-11T08:38:44.754Z,64.10
2022-10-11T08:41:33.157Z,64.29
2022-10-11T08:44:01.286Z,65.58
2022-10-11T08:46:32.191Z,66.12
2022-10-11T08:49:00.301Z,66.18
2022-10-11T08:51:39.969Z,66.95
2022-10-11T08:54:13.947Z,65.59
2022-10-11T08:56:43.841Z,65.38
2022-10-11T08:59:11.830Z,65.92
2022-10-11T09:01:44.908Z,65.88
2022-10-11T09:04:17.391Z,65.92
2022-10-11T09:07:00.233Z,66.35
2022-10-11T09:09:31.981Z,66.58
2022-10-11T09:12:27.106Z,66.93
2022-10-11T09:15:11.535Z,67.95
2022-10-11T09:17:54.250Z,67.80
2022-10-11T09:20:25.379Z,68.04
2022-10-11T09:23:08.688Z,68.31
2022-10-11T09:25:44.763Z,68.43
2022-10-11T09:28:20.491Z,67.96
2022-10-11T09:30:51.039Z,67.92
2022-10-11T09:33:21.377Z,68.10
2022-10-11T09:35:51.525Z,67.94
2022-10-11T09:38:38.249Z,68.06
2022-10-11T09:41:06.347Z,68.20
2022-10-11T09:43:34.428Z,67.43
2022-10-11T09:46:02.830Z,67.32
2022-10-11T09:48:37.848Z,66.51
2022-10-11T09:51:08.431Z,67.55
2022-10-11T09:53:49.900Z,68.19
2022-10-11T09:56:17.999Z,68.16
2022-10-11T09:58:46.001Z,67.49
2022-10-11T10:01:23.410Z,66.80
2022-10-11T10:04:04.937Z,66.93
2022-10-11T10:06:32.973Z,67.18
2022-10-11T10:09:20.888Z,66.73
2022-10-11T10:11:49.409Z,65.96
2022-10-11T10:14:20.607Z,66.64
2022-10-11T10:16:48.925Z,66.25
2022-10-11T10:19:18.923Z,66.06
2022-10-11T10:21:48.328Z,65.19
2022-10-11T10:24:27.077Z,64.99
2022-10-11T10:27:17.155Z,65.06
2022-10-11T10:29:47.673Z,63.55
2022-10-11T10:32:28.111Z,61.65
2022-10-11T10:35:05.341Z,61.48
2022-10-11T10:37:40.998Z,59.97
2022-10-11T10:40:17.562Z,59.93
2022-10-11T10:42:45.645Z,57.81
2022-10-11T10:45:21.579Z,58.19
2022-10-11T10:48:05.553Z,56.92
2022-10-11T10:50:39.508Z,57.72
2022-10-11T10:53:23.214Z,56.79
2022-10-11T10:56:08.770Z,55.10
2022-10-11T10:58:43.149Z,56.57
2022-10-11T11:01:11.223Z,53.16
2022-10-11T11:03:44.267Z,53.57
2022-10-11T11:06:21.539Z,53.07
2022-10-11T11:09:25.045Z,53.85
2022-10-11T11:12:00.901Z,54.14
2022-10-11T11:14:47.857Z,53.50
2022-10-11T11:17:21.252Z,53.52
2022-10-11T11:19:57.487Z,52.80
2022-10-11T11:22:34.981Z,52.47
2022-10-11T11:25:22.061Z,52.11
2022-10-11T11:27:55.999Z,51.59
2022-10-11T11:30:29.522Z,51.31
2022-10-11T11:33:03.817Z,50.26
2022-10-11T11:35:38.259Z,49.29
2022-10-11T11:38:29.258Z,51.51
2022-10-11T11:41:02.420Z,50.69
2022-10-11T11:43:32.861Z,49.51
2022-10-11T11:46:15.938Z,50.24
2022-10-11T11:48:44.782Z,49.85
2022-10-11T11:51:18.868Z,49.09
2022-10-11T11:53:50.843Z,49.55
2022-10-11T11:56:24.906Z,47.62
2022-10-11T11:59:00.415Z,46.25
2022-10-11T12:01:42.710Z,46.06
2022-10-11T12:04:28.646Z,47.68
2022-10-11T12:07:16.820Z,47.81
2022-10-11T12:09:50.743Z,46.42
2022-10-11T12:12:28.013Z,47.21
2022-10-11T12:15:05.199Z,46.03
2022-10-11T12:17:33.377Z,45.76
2022-10-11T12:20:09.732Z,45.92
2022-10-11T12:22:58.587Z,45.98
2022-10-11T12:25:26.595Z,46.50
2022-10-11T12:27:55.761Z,45.29
2022-10-11T12:30:42.732Z,45.22
2022-10-11T12:33:25.967Z,45.14
2022-10-11T12:35:54.051Z,44.36
2022-10-11T12:38:22.121Z,44.26
2022-10-11T12:40:54.983Z,45.67
2022-10-11T12:43:23.031Z,46.46
2022-10-11T12:45:51.337Z,46.10
2022-10-11T12:48:38.527Z,46.98
2022-10-11T12:51:27.501Z,46.69
2022-10-11T12:54:24.978Z,45.99
2022-10-11T12:56:46.325Z,46.60
2022-10-11T12:59:16.978Z,46.76
2022-10-11T13:01:53.322Z,47.74
2022-10-11T13:04:23.275Z,46.76
2022-10-11T13:06:56.792Z,47.94
2022-10-11T13:09:45.316Z,48.65
2022-10-11T13:12:18.130Z,49.44
2022-10-11T13:14:48.399Z,49.15
2022-10-11T13:17:27.242Z,48.75
2022-10-11T13:20:13.780Z,48.60
2022-10-11T13:22:42.002Z,48.85
2022-10-11T13:25:15.147Z,48.90
2022-10-11T13:27:43.861Z,49.18
2022-10-11T13:30:17.608Z,49.38
2022-10-11T13:32:45.765Z,49.57
2022-10-11T13:35:20.974Z,49.89
2022-10-11T13:37:52.158Z,50.13
2022-10-11T13:40:21.340Z,50.68
2022-10-11T13:42:50.886Z,51.17
2022-10-11T13:45:23.575Z,51.77
2022-10-11T13:47:52.892Z,52.15
2022-10-11T13:50:22.833Z,52.55
2022-10-11T13:52:56.085Z,53.05
2022-10-11T13:55:25.423Z,53.43
2022-10-11T13:57:54.144Z,53.55
2022-10-11T14:00:27.503Z,53.96
2022-10-11T14:03:17.265Z,54.28
2022-10-11T14:05:53.678Z,54.92
2022-10-11T14:08:24.911Z,55.27
2022-10-11T14:10:57.159Z,55.58
2022-10-11T14:13:30.281Z,56.14
2022-10-11T14:16:03.596Z,56.62
2022-10-11T14:18:38.870Z,56.82
2022-10-11T14:21:19.060Z,56.94
2022-10-11T14:23:47.644Z,57.65
2022-10-11T14:26:18.661Z,57.73
2022-10-11T14:28:54.355Z,57.89
2022-10-11T14:31:22.576Z,58.27
2022-10-11T14:33:50.698Z,57.94
2022-10-11T14:36:18.753Z,58.27
2022-10-11T14:38:46.753Z,58.61
2022-10-11T14:41:14.825Z,58.78
2022-10-11T14:43:42.836Z,58.99
2022-10-11T14:46:19.937Z,58.77
2022-10-11T14:48:56.743Z,59.28
2022-10-11T14:51:29.245Z,59.12
2022-10-11T14:53:57.302Z,59.15
2022-10-11T14:56:25.348Z,59.44
2022-10-11T14:58:53.417Z,59.68
2022-10-11T15:01:21.533Z,59.94
2022-10-11T15:03:49.601Z,60.02
2022-10-11T15:06:20.128Z,60.05
2022-10-11T15:08:48.185Z,60.40
2022-10-11T15:11:20.505Z,60.82
2022-10-11T15:13:49.425Z,60.93
2022-10-11T15:16:19.926Z,61.54
2022-10-11T15:18:52.136Z,61.66
2022-10-11T15:21:21.273Z,62.81
2022-10-11T15:23:50.309Z,62.87
2022-10-11T15:26:20.746Z,62.32
2022-10-11T15:28:49.382Z,62.52
2022-10-11T15:31:17.950Z,63.16
2022-10-11T15:33:46.348Z,63.11
2022-10-11T15:36:16.564Z,63.41
2022-10-11T15:38:45.226Z,64.40
2022-10-11T15:41:15.659Z,63.73
2022-10-11T15:43:44.566Z,63.97
2022-10-11T15:46:14.125Z,64.25
2022-10-11T15:48:42.387Z,64.49
2022-10-11T15:51:10.602Z,65.52
2022-10-11T15:53:38.877Z,65.36
2022-10-11T15:56:09.203Z,64.81
2022-10-11T15:58:39.149Z,64.84
2022-10-11T16:01:09.337Z,64.94
2022-10-11T16:03:37.962Z,64.91
2022-10-11T16:06:06.414Z,65.35
2022-10-11T16:08:35.290Z,65.67
2022-10-11T16:11:04.603Z,65.81
2022-10-11T16:13:33.101Z,65.88
2022-10-11T16:16:02.443Z,65.33
2022-10-11T16:18:35.122Z,65.31
2022-10-11T16:21:09.211Z,64.88
2022-10-11T16:23:38.342Z,64.65
2022-10-11T16:26:08.953Z,64.82
2022-10-11T16:28:38.200Z,65.01
2022-10-11T16:31:11.143Z,65.26
2022-10-11T16:33:48.385Z,65.31
2022-10-11T16:36:40.782Z,65.42
2022-10-11T16:39:13.078Z,65.52
2022-10-11T16:41:41.409Z,65.82
2022-10-11T16:44:13.510Z,66.11
2022-10-11T16:46:42.439Z,66.47
2022-10-11T16:49:10.837Z,66.71
2022-10-11T16:51:38.993Z,66.82
2022-10-11T16:54:07.171Z,66.95
2022-10-11T16:56:39.766Z,66.79
2022-10-11T16:59:08.547Z,66.91
2022-10-11T17:01:36.831Z,66.97
2022-10-11T17:04:05.397Z,66.90
2022-10-11T17:06:33.588Z,66.89
2022-10-11T17:09:02.223Z,66.85
2022-10-11T17:11:30.378Z,66.82
2022-10-11T17:14:00.266Z,67.03
2022-10-11T17:16:28.404Z,67.18
2022-10-11T17:18:56.582Z,67.23
2022-10-11T17:21:24.738Z,67.69
2022-10-11T17:23:52.923Z,68.44
2022-10-11T17:26:23.436Z,68.92
2022-10-11T17:28:51.709Z,69.49
2022-10-11T17:31:19.957Z,69.26
2022-10-11T17:33:48.103Z,68.83
2022-10-11T17:36:19.503Z,70.35
2022-10-11T17:38:48.140Z,71.13
2022-10-11T17:41:16.857Z,71.49
2022-10-11T17:43:45.166Z,71.30
2022-10-11T17:46:14.369Z,72.01
2022-10-11T17:48:42.561Z,70.15
2022-10-11T17:51:12.442Z,70.91
2022-10-11T17:53:40.804Z,71.63
2022-10-11T17:56:10.731Z,71.70
2022-10-11T17:58:39.152Z,72.11
2022-10-11T18:01:09.185Z,72.24
2022-10-11T18:03:37.898Z,72.64
2022-10-11T18:06:10.239Z,72.82
2022-10-11T18:08:40.536Z,73.26
2022-10-11T18:11:09.837Z,72.84
2022-10-11T18:13:37.956Z,72.70
2022-10-11T18:16:06.519Z,72.80
2022-10-11T18:18:35.720Z,72.78
2022-10-11T18:21:03.946Z,72.65
2022-10-11T18:23:32.806Z,72.60
2022-10-11T18:26:08.096Z,72.59
2022-10-11T18:28:36.754Z,72.47
2022-10-11T18:31:13.011Z,72.44
2022-10-11T18:33:42.735Z,72.50
2022-10-11T18:36:13.597Z,72.33
2022-10-11T18:38:46.779Z,72.21
2022-10-11T18:41:19.787Z,72.42
2022-10-11T18:43:56.518Z,72.55
2022-10-11T18:46:25.035Z,72.36
2022-10-11T18:48:54.150Z,72.14
2022-10-11T18:51:22.482Z,72.14
2022-10-11T18:53:50.616Z,72.21
2022-10-11T18:56:20.842Z,72.16
2022-10-11T18:58:50.358Z,72.20
2022-10-11T19:01:18.548Z,72.18
2022-10-11T19:03:47.897Z,72.06
2022-10-11T19:06:17.848Z,72.08
2022-10-11T19:08:50.177Z,72.30
2022-10-11T19:11:22.306Z,72.28
2022-10-11T19:13:55.604Z,72.31
2022-10-11T19:16:24.225Z,72.64
2022-10-11T19:18:52.811Z,72.68
2022-10-11T19:21:21.337Z,73.03
2022-10-11T19:23:50.200Z,73.18
2022-10-11T19:26:23.891Z,73.18
2022-10-11T19:28:56.915Z,73.37
2022-10-11T19:31:25.594Z,73.65
2022-10-11T19:33:53.826Z,73.49
2022-10-11T19:36:22.169Z,73.44
2022-10-11T19:38:50.886Z,73.40
2022-10-11T19:41:20.455Z,73.66
2022-10-11T19:43:48.739Z,73.80
2022-10-11T19:46:37.888Z,74.07
2022-10-11T19:49:06.726Z,74.12
2022-10-11T19:51:35.325Z,74.22
2022-10-11T19:54:07.601Z,74.50
2022-10-11T19:56:36.141Z,74.56
2022-10-11T19:59:06.538Z,74.77
2022-10-11T20:01:35.970Z,74.86
2022-10-11T20:04:08.736Z,74.79
2022-10-11T20:06:39.375Z,74.65
2022-10-11T20:09:28.519Z,74.76
2022-10-11T20:11:56.861Z,74.65
2022-10-11T20:14:25.350Z,74.74
2022-10-11T20:16:53.673Z,74.88
2022-10-11T20:19:27.781Z,74.69
2022-10-11T20:21:58.637Z,74.62
2022-10-11T20:24:29.087Z,74.72
2022-10-11T20:26:57.307Z,75.00
2022-10-11T20:29:25.631Z,74.95
2022-10-11T20:31:53.837Z,75.08
2022-10-11T20:34:22.441Z,75.07
2022-10-11T20:36:50.717Z,75.03
2022-10-11T20:39:18.849Z,75.10
2022-10-11T20:41:46.959Z,75.04
2022-10-11T20:44:16.314Z,75.07
2022-10-11T20:46:44.465Z,75.09
2022-10-11T20:49:12.655Z,75.07
2022-10-11T20:51:41.894Z,74.91
2022-10-11T20:54:10.399Z,75.09
2022-10-11T20:56:38.608Z,74.98
2022-10-11T20:59:07.008Z,75.08
2022-10-11T21:01:39.703Z,75.08
2022-10-11T21:04:09.968Z,75.19
2022-10-11T21:06:38.105Z,75.10
2022-10-11T21:09:06.193Z,75.21
2022-10-11T21:11:35.231Z,75.19
2022-10-11T21:14:04.973Z,75.33
2022-10-11T21:16:34.039Z,75.27
2022-10-11T21:19:02.301Z,75.33
2022-10-11T21:21:30.903Z,75.35
2022-10-11T21:24:00.419Z,75.43
2022-10-11T21:26:28.833Z,75.53
2022-10-11T21:28:59.303Z,75.53
2022-10-11T21:31:33.573Z,75.70
2022-10-11T21:34:03.425Z,75.68
2022-10-11T21:36:31.672Z,75.70
2022-10-11T21:39:01.662Z,75.75
2022-10-11T21:41:30.365Z,75.91
2022-10-11T21:43:58.802Z,75.92
2022-10-11T21:46:47.565Z,75.88
2022-10-11T21:49:16.643Z,76.05
2022-10-11T21:51:44.875Z,76.16
2022-10-11T21:54:13.081Z,76.10
2022-10-11T21:56:41.414Z,76.04
2022-10-11T21:59:12.298Z,76.03
2022-10-11T22:01:43.690Z,75.97
2022-10-11T22:04:12.251Z,76.15
2022-10-11T22:06:40.528Z,76.12
2022-10-11T22:09:09.001Z,76.35
2022-10-11T22:11:37.539Z,76.40
2022-10-11T22:14:05.688Z,76.56
2022-10-11T22:16:34.933Z,76.54
2022-10-11T22:19:03.658Z,76.70
2022-10-11T22:21:31.798Z,76.80
2022-10-11T22:24:00.159Z,76.87
2022-10-11T22:26:30.890Z,76.92
2022-10-11T22:29:00.321Z,76.90
2022-10-11T22:31:29.367Z,76.85
2022-10-11T22:33:59.068Z,77.06
2022-10-11T22:36:28.094Z,77.07
2022-10-11T22:38:56.537Z,77.10
2022-10-11T22:41:24.714Z,77.03
2022-10-11T22:43:52.956Z,76.92
2022-10-11T22:46:21.856Z,76.97
2022-10-11T22:48:50.028Z,76.96
2022-10-11T22:51:18.249Z,76.92
2022-10-11T22:53:46.393Z,76.95
2022-10-11T22:56:14.574Z,76.98
2022-10-11T22:58:42.652Z,76.87
2022-10-11T23:01:12.601Z,76.90
2022-10-11T23:03:40.860Z,77.00
2022-10-11T23:06:09.374Z,77.03
2022-10-11T23:08:37.749Z,77.22
2022-10-11T23:11:06.827Z,77.32
2022-10-11T23:13:35.428Z,77.30
2022-10-11T23:16:08.112Z,77.27
2022-10-11T23:18:36.560Z,77.29
2022-10-11T23:21:05.547Z,77.09
2022-10-11T23:23:34.074Z,77.23
2022-10-11T23:26:06.917Z,77.14
2022-10-11T23:28:35.410Z,77.14
2022-10-11T23:31:13.469Z,77.18
2022-10-11T23:33:41.598Z,77.25
2022-10-11T23:36:17.359Z,77.32
2022-10-11T23:38:49.620Z,77.22
2022-10-11T23:41:17.863Z,77.21
2022-10-11T23:43:46.061Z,77.14
2022-10-11T23:46:14.187Z,77.18
2022-10-11T23:48:42.431Z,77.18
2022-10-11T23:51:10.966Z,77.19
2022-10-11T23:53:39.201Z,76.99
2022-10-11T23:56:07.894Z,77.03
2022-10-11T23:58:36.581Z,76.91
